Time;durP1;ratioP1;P1;durP2;ratioP2;P2;SDS_P1;SDS_P2;PMS_P1;PMS_P2;Temp;Humidity;BMP_temperature;BMP_pressure;BME280_temperature;BME280_humidity;BME280_pressure;Samples;Min_cycle;Max_cycle;Signal;HPM_P1;HPM_P2
2022/10/21 00:02:11;;;;;;;0.60;0.60;;;10.30;99.90;;;;;;5055298;28;20432;-62
2022/10/21 00:05:00;;;;;;;0.40;0.40;;;10.30;99.90;;;;;;5062529;28;20431;-62
2022/10/21 00:07:48;;;;;;;0.40;0.40;;;10.20;99.90;;;;;;5068348;28;20431;-63
2022/10/21 00:10:37;;;;;;;0.40;0.40;;;10.20;99.90;;;;;;5070451;28;20504;-62
2022/10/21 00:13:31;;;;;;;0.40;0.40;;;10.20;99.90;;;;;;5068239;28;20420;-62
2022/10/21 00:16:19;;;;;;;0.40;0.40;;;10.30;99.90;;;;;;5068011;28;20546;-63
2022/10/21 00:19:07;;;;;;;0.40;0.40;;;10.30;99.90;;;;;;5068738;28;20511;-63
2022/10/21 00:21:57;;;;;;;0.40;0.40;;;10.20;99.90;;;;;;5056733;28;20430;-62
2022/10/21 00:24:45;;;;;;;0.77;0.77;;;10.40;99.90;;;;;;5055061;28;20420;-62
2022/10/21 00:27:33;;;;;;;0.50;0.50;;;10.10;99.90;;;;;;5054432;28;20426;-62
2022/10/21 00:30:21;;;;;;;0.40;0.40;;;10.30;99.90;;;;;;5054306;28;20542;-62
2022/10/21 00:33:09;;;;;;;0.40;0.40;;;10.30;99.90;;;;;;5054351;28;20519;-62
2022/10/21 00:36:01;;;;;;;0.40;0.40;;;10.20;99.90;;;;;;5054894;28;20950;-62
2022/10/21 00:38:50;;;;;;;0.40;0.40;;;10.30;99.90;;;;;;5054731;28;20436;-62
2022/10/21 00:41:38;;;;;;;0.70;0.70;;;10.30;99.90;;;;;;5054308;28;20428;-63
2022/10/21 00:44:26;;;;;;;0.40;0.40;;;10.40;99.90;;;;;;5053539;28;20427;-62
2022/10/21 00:47:17;;;;;;;0.40;0.40;;;10.30;99.90;;;;;;5053638;28;20483;-63
2022/10/21 00:50:16;;;;;;;0.60;0.60;;;10.30;99.90;;;;;;5052959;28;20792;-62
2022/10/21 00:53:06;;;;;;;1.20;1.10;;;10.30;99.90;;;;;;5052215;28;21078;-62
2022/10/21 00:56:01;;;;;;;0.40;0.40;;;10.40;99.90;;;;;;5055127;28;20428;-63
2022/10/21 00:58:51;;;;;;;0.40;0.40;;;10.30;99.90;;;;;;5052872;28;20450;-62
2022/10/21 01:01:39;;;;;;;0.40;0.40;;;10.40;99.90;;;;;;5055408;28;20435;-62
2022/10/21 01:04:27;;;;;;;0.40;0.40;;;10.30;99.90;;;;;;5054387;28;20424;-62
2022/10/21 01:07:15;;;;;;;0.40;0.40;;;10.20;99.90;;;;;;5051510;28;21015;-62
2022/10/21 01:10:04;;;;;;;0.40;0.40;;;10.20;99.90;;;;;;5054406;28;20535;-62
2022/10/21 01:13:07;;;;;;;0.40;0.40;;;10.20;99.90;;;;;;5053705;28;20577;-62
2022/10/21 01:16:02;;;;;;;0.40;0.40;;;10.20;99.90;;;;;;5055961;28;20512;-62
2022/10/21 01:18:58;;;;;;;0.40;0.40;;;10.20;99.90;;;;;;5070247;28;20444;-62
2022/10/21 01:21:52;;;;;;;1.13;1.13;;;10.20;99.90;;;;;;5069046;28;20551;-63
2022/10/21 01:24:58;;;;;;;0.40;0.40;;;10.20;99.90;;;;;;5054391;28;20428;-62
2022/10/21 01:27:54;;;;;;;0.40;0.40;;;10.20;99.90;;;;;;5054618;28;20420;-62
2022/10/21 01:30:46;;;;;;;0.57;0.57;;;10.20;99.90;;;;;;5051596;28;20574;-62
2022/10/21 01:33:45;;;;;;;0.33;0.33;;;10.20;99.90;;;;;;5053259;28;20534;-62
2022/10/21 01:36:41;;;;;;;0.40;0.40;;;10.20;99.90;;;;;;5052030;28;20428;-62
2022/10/21 01:39:35;;;;;;;0.40;0.40;;;10.20;99.90;;;;;;5052355;28;20876;-62
2022/10/21 01:42:30;;;;;;;0.40;0.40;;;10.20;99.90;;;;;;5053098;28;20574;-62
2022/10/21 01:45:23;;;;;;;0.53;0.53;;;10.20;99.90;;;;;;5051544;28;20421;-62
2022/10/21 01:48:18;;;;;;;0.40;0.40;;;10.30;99.90;;;;;;5052322;28;20448;-62
2022/10/21 01:51:08;;;;;;;0.40;0.40;;;10.30;99.90;;;;;;5051168;28;20509;-62
2022/10/21 01:54:01;;;;;;;0.53;0.53;;;10.30;99.90;;;;;;5052394;28;20507;-62
2022/10/21 01:56:52;;;;;;;0.40;0.40;;;10.30;99.90;;;;;;5051300;28;20428;-62
2022/10/21 01:59:42;;;;;;;0.40;0.40;;;10.30;99.90;;;;;;5050975;28;20475;-62
2022/10/21 02:02:33;;;;;;;0.40;0.40;;;10.20;99.90;;;;;;5052866;28;21026;-62
2022/10/21 02:05:28;;;;;;;0.40;0.40;;;10.30;99.90;;;;;;5050516;28;20427;-62
2022/10/21 02:08:16;;;;;;;0.40;0.40;;;10.30;99.90;;;;;;5052320;28;20506;-62
2022/10/21 02:11:08;;;;;;;2.37;1.33;;;10.30;99.90;;;;;;5050445;28;20934;-62
2022/10/21 02:13:59;;;;;;;0.40;0.40;;;10.20;99.90;;;;;;5051364;28;20456;-62
2022/10/21 02:16:49;;;;;;;0.40;0.40;;;10.30;99.90;;;;;;5051940;28;20925;-62
2022/10/21 02:19:37;;;;;;;0.40;0.40;;;10.30;99.90;;;;;;5050452;28;20472;-63
2022/10/21 02:22:28;;;;;;;0.40;0.40;;;10.20;99.90;;;;;;5051932;28;20558;-62
2022/10/21 02:25:20;;;;;;;0.40;0.40;;;10.30;99.90;;;;;;5050734;28;20511;-62
2022/10/21 02:28:08;;;;;;;0.40;0.40;;;10.30;99.90;;;;;;5048618;28;78006;-62
2022/10/21 02:31:07;;;;;;;0.40;0.40;;;10.30;99.90;;;;;;5039419;28;20570;-62
2022/10/21 02:34:04;;;;;;;0.40;0.40;;;10.40;99.90;;;;;;5051624;28;20490;-62
2022/10/21 02:36:56;;;;;;;0.40;0.40;;;10.30;99.90;;;;;;5053071;28;20443;-62
2022/10/21 02:39:51;;;;;;;0.40;0.40;;;10.40;99.90;;;;;;5052065;28;20578;-62
2022/10/21 02:42:45;;;;;;;0.40;0.40;;;10.30;99.90;;;;;;5052294;28;20507;-62
2022/10/21 02:45:34;;;;;;;0.40;0.40;;;10.40;99.90;;;;;;5051308;28;20507;-62
2022/10/21 02:48:22;;;;;;;0.40;0.40;;;10.40;99.90;;;;;;5052228;28;20425;-62
2022/10/21 02:51:11;;;;;;;0.40;0.40;;;10.40;99.90;;;;;;5050846;28;20514;-62
2022/10/21 02:53:59;;;;;;;0.70;0.70;;;10.40;99.90;;;;;;5050943;28;20508;-62
2022/10/21 02:56:49;;;;;;;0.50;0.50;;;10.60;99.90;;;;;;5051329;28;20519;-62
2022/10/21 02:59:37;;;;;;;0.50;0.50;;;10.40;99.90;;;;;;5051692;28;20558;-62
2022/10/21 03:02:25;;;;;;;0.40;0.40;;;10.60;99.90;;;;;;5052915;28;20515;-62
2022/10/21 03:05:13;;;;;;;0.40;0.40;;;10.00;99.90;;;;;;5052161;28;20429;-62
2022/10/21 03:08:01;;;;;;;0.40;0.40;;;10.20;99.90;;;;;;5052853;28;20455;-62
2022/10/21 03:10:49;;;;;;;0.40;0.40;;;10.20;99.90;;;;;;5051078;28;20458;-62
2022/10/21 03:13:41;;;;;;;0.40;0.40;;;10.30;99.90;;;;;;5052025;28;20431;-62
2022/10/21 03:16:29;;;;;;;0.40;0.40;;;10.30;99.90;;;;;;5051372;28;20962;-62
2022/10/21 03:19:18;;;;;;;0.40;0.40;;;10.30;99.90;;;;;;5051914;28;20475;-62
2022/10/21 03:22:06;;;;;;;0.40;0.40;;;10.30;99.90;;;;;;5052805;28;20448;-62
2022/10/21 03:24:54;;;;;;;0.40;0.40;;;10.00;99.90;;;;;;5052761;28;20430;-62
2022/10/21 03:27:42;;;;;;;0.40;0.40;;;10.30;99.90;;;;;;5052138;28;20511;-62
2022/10/21 03:30:31;;;;;;;0.40;0.40;;;10.30;99.90;;;;;;5050628;28;20574;-62
2022/10/21 03:33:19;;;;;;;0.40;0.40;;;10.30;99.90;;;;;;5052140;28;20477;-62
2022/10/21 03:36:07;;;;;;;0.40;0.40;;;10.10;99.90;;;;;;5051080;28;20428;-62
2022/10/21 03:38:56;;;;;;;0.40;0.40;;;10.50;99.90;;;;;;5052228;28;20464;-65
2022/10/21 03:41:44;;;;;;;0.40;0.40;;;10.50;99.90;;;;;;5051047;28;20496;-62
2022/10/21 03:44:32;;;;;;;0.40;0.40;;;10.50;99.90;;;;;;5051091;28;20531;-62
2022/10/21 03:47:22;;;;;;;0.40;0.40;;;10.40;99.90;;;;;;5052488;28;20853;-62
2022/10/21 03:50:10;;;;;;;0.40;0.40;;;10.50;99.90;;;;;;5051148;28;20462;-62
2022/10/21 03:53:03;;;;;;;0.40;0.40;;;10.60;99.90;;;;;;5051741;28;20439;-62
2022/10/21 03:56:11;;;;;;;0.40;0.40;;;10.50;99.90;;;;;;5051067;28;20795;-62
2022/10/21 03:58:59;;;;;;;0.40;0.40;;;10.50;99.90;;;;;;5050782;28;20478;-62
2022/10/21 04:01:47;;;;;;;0.40;0.40;;;10.50;99.90;;;;;;5051971;28;20470;-62
2022/10/21 04:04:37;;;;;;;0.40;0.40;;;10.50;99.90;;;;;;5050773;28;20924;-62
2022/10/21 04:07:25;;;;;;;0.40;0.40;;;10.50;99.90;;;;;;5052032;28;20424;-62
2022/10/21 04:10:13;;;;;;;0.40;0.40;;;10.50;99.90;;;;;;5050601;28;20451;-62
2022/10/21 04:13:01;;;;;;;0.40;0.40;;;10.70;99.90;;;;;;5052236;28;20926;-62
2022/10/21 04:15:50;;;;;;;0.40;0.40;;;10.40;99.90;;;;;;5052271;28;20852;-62
2022/10/21 04:18:38;;;;;;;0.40;0.40;;;10.40;99.90;;;;;;5050523;28;20949;-62
2022/10/21 04:21:27;;;;;;;0.40;0.40;;;10.40;99.90;;;;;;5050384;28;20458;-61
2022/10/21 04:24:15;;;;;;;0.40;0.40;;;10.40;99.90;;;;;;5050785;28;20940;-62
2022/10/21 04:27:03;;;;;;;0.40;0.40;;;10.40;99.90;;;;;;5052650;28;20506;-62
2022/10/21 04:29:51;;;;;;;0.50;0.50;;;10.40;99.90;;;;;;5054111;28;21054;-62
2022/10/21 04:32:41;;;;;;;0.40;0.40;;;10.40;99.90;;;;;;5054109;28;21003;-62
2022/10/21 04:35:29;;;;;;;0.40;0.40;;;10.70;99.90;;;;;;5055285;28;20480;-62
2022/10/21 04:38:19;;;;;;;0.40;0.40;;;10.40;99.90;;;;;;5054063;28;20519;-63
2022/10/21 04:41:07;;;;;;;0.40;0.40;;;10.30;99.90;;;;;;5053958;28;20519;-62
2022/10/21 04:43:55;;;;;;;0.40;0.40;;;10.40;99.90;;;;;;5054872;28;20505;-62
2022/10/21 04:46:43;;;;;;;1.27;1.20;;;10.10;99.90;;;;;;5055582;28;20938;-62
2022/10/21 04:49:31;;;;;;;0.40;0.40;;;10.40;99.90;;;;;;5053544;28;20545;-62
2022/10/21 04:52:19;;;;;;;0.40;0.40;;;10.40;99.90;;;;;;5054212;28;20456;-62
2022/10/21 04:55:09;;;;;;;0.40;0.40;;;10.40;99.90;;;;;;5055576;28;20923;-62
2022/10/21 04:57:57;;;;;;;0.40;0.40;;;10.60;99.90;;;;;;5054365;28;20516;-62
2022/10/21 05:00:45;;;;;;;0.40;0.40;;;10.30;99.90;;;;;;5054885;28;20481;-62
2022/10/21 05:03:33;;;;;;;0.70;0.70;;;10.30;99.90;;;;;;5053853;28;20451;-62
2022/10/21 05:06:21;;;;;;;0.90;0.90;;;10.30;99.90;;;;;;5055379;28;20432;-63
2022/10/21 05:09:09;;;;;;;0.40;0.40;;;10.20;99.90;;;;;;5053778;28;20460;-62
2022/10/21 05:11:59;;;;;;;0.40;0.40;;;9.90;99.90;;;;;;5055765;28;20641;-63
2022/10/21 05:14:47;;;;;;;0.40;0.40;;;10.30;99.90;;;;;;5057823;28;20944;-62
2022/10/21 05:17:35;;;;;;;0.40;0.40;;;10.40;99.90;;;;;;5056755;28;20424;-62
2022/10/21 05:20:24;;;;;;;0.40;0.40;;;10.40;99.90;;;;;;5057307;28;20569;-62
2022/10/21 05:23:12;;;;;;;1.10;1.10;;;10.40;99.90;;;;;;5056260;28;20431;-63
2022/10/21 05:26:00;;;;;;;0.40;0.40;;;10.50;99.90;;;;;;5056905;28;20519;-62
2022/10/21 05:28:49;;;;;;;0.40;0.40;;;10.50;99.90;;;;;;5054731;28;20483;-63
2022/10/21 05:31:38;;;;;;;1.43;1.33;;;10.60;99.90;;;;;;5058155;28;20431;-64
2022/10/21 05:34:26;;;;;;;0.40;0.40;;;10.50;99.90;;;;;;5062275;28;20425;-63
2022/10/21 05:37:14;;;;;;;0.40;0.40;;;10.50;99.90;;;;;;5067473;28;20460;-63
2022/10/21 05:40:03;;;;;;;0.40;0.40;;;10.60;99.90;;;;;;5072104;28;20535;-63
2022/10/21 05:42:51;;;;;;;0.40;0.40;;;10.50;99.90;;;;;;5072145;28;20429;-63
2022/10/21 05:45:40;;;;;;;0.40;0.40;;;10.60;99.90;;;;;;5073497;28;20467;-64
2022/10/21 05:48:29;;;;;;;0.40;0.40;;;10.50;99.90;;;;;;5072713;28;20475;-63
2022/10/21 05:51:17;;;;;;;0.40;0.40;;;10.50;99.90;;;;;;5073967;28;20504;-64
2022/10/21 05:54:05;;;;;;;0.40;0.40;;;10.50;99.90;;;;;;5072616;28;20982;-63
2022/10/21 05:56:55;;;;;;;0.40;0.40;;;10.50;99.90;;;;;;5062273;28;20512;-63
2022/10/21 05:59:43;;;;;;;0.40;0.40;;;10.40;99.90;;;;;;5059525;28;20490;-63
2022/10/21 06:02:33;;;;;;;0.40;0.40;;;10.40;99.90;;;;;;5059185;28;20464;-63
2022/10/21 06:05:21;;;;;;;0.40;0.40;;;10.40;99.90;;;;;;5065454;28;20464;-64
2022/10/21 06:08:09;;;;;;;0.40;0.40;;;10.40;99.90;;;;;;5069905;28;20424;-63
2022/10/21 06:11:01;;;;;;;1.13;0.87;;;10.50;99.90;;;;;;5053472;28;20522;-63
2022/10/21 06:13:50;;;;;;;0.40;0.40;;;10.50;99.90;;;;;;5053192;28;20466;-62
2022/10/21 06:16:38;;;;;;;0.40;0.40;;;10.50;99.90;;;;;;5035581;28;20437;-63
2022/10/21 06:19:27;;;;;;;0.40;0.40;;;10.50;99.90;;;;;;5045849;28;20496;-62
2022/10/21 06:22:15;;;;;;;0.40;0.40;;;10.60;99.90;;;;;;5050882;28;20456;-62
2022/10/21 06:25:04;;;;;;;0.50;0.50;;;10.60;99.90;;;;;;5045905;28;20428;-63
2022/10/21 06:27:52;;;;;;;0.40;0.40;;;10.50;99.90;;;;;;5053970;28;20941;-62
2022/10/21 06:30:40;;;;;;;0.40;0.40;;;10.60;99.90;;;;;;5035491;28;20463;-62
2022/10/21 06:33:28;;;;;;;0.30;0.30;;;10.50;99.90;;;;;;5033059;28;20433;-62
2022/10/21 06:36:18;;;;;;;0.40;0.40;;;10.60;99.90;;;;;;5034208;28;21135;-62
2022/10/21 06:39:06;;;;;;;0.40;0.40;;;10.70;99.90;;;;;;5034609;28;20880;-62
2022/10/21 06:41:54;;;;;;;0.40;0.40;;;10.70;99.90;;;;;;5034704;28;20839;-63
2022/10/21 06:44:42;;;;;;;0.40;0.40;;;10.80;99.90;;;;;;5034876;28;20449;-62
2022/10/21 06:47:30;;;;;;;0.40;0.40;;;10.80;99.90;;;;;;5034203;28;20508;-62
2022/10/21 06:50:19;;;;;;;0.40;0.40;;;10.60;99.90;;;;;;5034313;28;20448;-63
2022/10/21 06:53:09;;;;;;;0.40;0.40;;;10.80;99.90;;;;;;5034644;28;20924;-62
2022/10/21 06:56:01;;;;;;;0.40;0.40;;;10.80;99.90;;;;;;5034381;28;20425;-63
2022/10/21 06:58:50;;;;;;;0.70;0.70;;;10.90;99.90;;;;;;5047770;28;20486;-62
2022/10/21 07:01:38;;;;;;;0.40;0.40;;;10.90;99.90;;;;;;5053543;28;20416;-62
2022/10/21 07:04:48;;;;;;;0.50;0.50;;;10.90;99.90;;;;;;5052737;28;20428;-63
2022/10/21 07:07:36;;;;;;;0.40;0.40;;;10.90;99.90;;;;;;5053285;28;20416;-63
2022/10/21 07:10:26;;;;;;;0.80;0.80;;;10.90;99.90;;;;;;5053382;28;20463;-63
2022/10/21 07:13:14;;;;;;;0.40;0.40;;;11.00;99.90;;;;;;5052286;28;20478;-63
2022/10/21 07:16:04;;;;;;;0.40;0.40;;;11.00;99.90;;;;;;5046628;28;20460;-64
2022/10/21 07:18:52;;;;;;;0.40;0.40;;;11.00;99.90;;;;;;5043755;28;20471;-63
2022/10/21 07:21:40;;;;;;;0.40;0.40;;;11.00;99.90;;;;;;5032567;28;20472;-62
2022/10/21 07:24:28;;;;;;;0.40;0.40;;;11.40;99.90;;;;;;5033186;28;21087;-63
2022/10/21 07:27:18;;;;;;;0.40;0.40;;;11.10;99.90;;;;;;5032355;28;20972;-63
2022/10/21 07:30:07;;;;;;;0.40;0.40;;;11.10;99.90;;;;;;5033999;28;20551;-62
2022/10/21 07:32:55;;;;;;;0.40;0.40;;;11.20;99.90;;;;;;5033750;28;20425;-62
2022/10/21 07:35:43;;;;;;;0.40;0.40;;;11.30;99.90;;;;;;5034360;28;20956;-63
2022/10/21 07:38:31;;;;;;;0.40;0.40;;;11.30;99.90;;;;;;5050252;28;20456;-63
2022/10/21 07:41:22;;;;;;;0.40;0.40;;;11.30;99.90;;;;;;5054390;28;20472;-62
2022/10/21 07:44:12;;;;;;;0.40;0.40;;;11.40;99.90;;;;;;5056253;28;20412;-62
2022/10/21 07:47:00;;;;;;;0.40;0.40;;;11.40;99.90;;;;;;5056247;28;20801;-63
2022/10/21 07:49:49;;;;;;;0.40;0.40;;;11.50;99.90;;;;;;5053936;28;20440;-62
2022/10/21 07:52:44;;;;;;;0.40;0.40;;;11.60;99.90;;;;;;5033672;28;20437;-63
2022/10/21 07:55:47;;;;;;;0.40;0.40;;;11.60;99.90;;;;;;5033423;28;20515;-62
2022/10/21 07:58:35;;;;;;;0.40;0.40;;;11.60;99.90;;;;;;5033122;28;20753;-62
2022/10/21 08:01:25;;;;;;;0.40;0.40;;;11.70;99.90;;;;;;5033963;28;20555;-63
2022/10/21 08:04:15;;;;;;;0.40;0.40;;;12.10;99.90;;;;;;5038259;28;20842;-63
2022/10/21 08:07:03;;;;;;;0.40;0.40;;;11.80;99.90;;;;;;5036451;28;20425;-63
2022/10/21 08:09:54;;;;;;;0.80;0.80;;;11.90;99.90;;;;;;5036434;28;20590;-63
2022/10/21 08:12:42;;;;;;;0.40;0.40;;;11.80;99.90;;;;;;5035754;28;20417;-63
2022/10/21 08:15:30;;;;;;;0.40;0.40;;;11.90;99.90;;;;;;5051823;28;20425;-63
2022/10/21 08:18:20;;;;;;;0.40;0.40;;;12.00;99.90;;;;;;5037246;28;20579;-63
2022/10/21 08:21:08;;;;;;;0.40;0.40;;;12.00;99.90;;;;;;5039311;28;20614;-63
2022/10/21 08:23:56;;;;;;;0.67;0.67;;;12.10;99.90;;;;;;5047951;28;20934;-63
2022/10/21 08:26:44;;;;;;;0.40;0.40;;;12.10;99.90;;;;;;5036119;28;20941;-62
2022/10/21 08:29:33;;;;;;;1.57;1.47;;;12.20;99.90;;;;;;5035166;28;20539;-62
2022/10/21 08:32:26;;;;;;;0.40;0.40;;;12.30;99.90;;;;;;5038109;28;20428;-62
2022/10/21 08:35:15;;;;;;;0.40;0.40;;;12.40;99.90;;;;;;5034971;28;20425;-63
2022/10/21 08:38:03;;;;;;;0.40;0.40;;;12.50;99.90;;;;;;5037336;28;20859;-63
2022/10/21 08:40:51;;;;;;;0.40;0.40;;;12.60;99.90;;;;;;5037104;28;20543;-62
2022/10/21 08:43:43;;;;;;;1.17;1.17;;;12.70;99.90;;;;;;5036802;28;20778;-62
2022/10/21 08:46:35;;;;;;;0.53;0.53;;;12.80;99.90;;;;;;5037516;28;20514;-63
2022/10/21 08:49:27;;;;;;;0.40;0.40;;;12.90;99.90;;;;;;5035892;28;20808;-62
2022/10/21 08:52:23;;;;;;;0.40;0.40;;;12.90;99.90;;;;;;5036163;28;20499;-63
2022/10/21 08:55:18;;;;;;;0.40;0.40;;;12.90;99.90;;;;;;5036689;28;20457;-63
2022/10/21 08:58:12;;;;;;;0.40;0.40;;;13.00;99.90;;;;;;5036042;28;20542;-63
2022/10/21 09:01:17;;;;;;;0.40;0.40;;;13.10;99.90;;;;;;5035301;28;20502;-62
2022/10/21 09:04:15;;;;;;;1.67;1.67;;;13.40;99.90;;;;;;5035581;28;20420;-65
2022/10/21 09:07:10;;;;;;;0.40;0.40;;;13.40;99.90;;;;;;5041065;28;20535;-63
2022/10/21 09:10:02;;;;;;;0.40;0.40;;;13.50;99.90;;;;;;5034068;28;20469;-62
2022/10/21 09:13:03;;;;;;;0.40;0.40;;;13.50;99.90;;;;;;5038964;28;20198;-63
2022/10/21 09:16:00;;;;;;;0.40;0.40;;;13.60;99.90;;;;;;5042817;28;20451;-62
2022/10/21 09:18:59;;;;;;;0.40;0.40;;;13.60;99.90;;;;;;5036296;28;21000;-62
2022/10/21 09:22:01;;;;;;;0.40;0.40;;;13.70;99.90;;;;;;5046990;28;20998;-62
2022/10/21 09:25:20;;;;;;;0.40;0.40;;;13.70;99.90;;;;;;5053169;28;20428;-62
2022/10/21 09:28:11;;;;;;;0.40;0.40;;;13.80;99.90;;;;;;5045757;28;20439;-63
2022/10/21 09:31:02;;;;;;;0.40;0.40;;;13.80;99.90;;;;;;5054597;28;20477;-63
2022/10/21 09:33:56;;;;;;;0.40;0.40;;;13.90;99.90;;;;;;5054480;28;21018;-62
2022/10/21 09:36:47;;;;;;;0.40;0.40;;;13.90;99.90;;;;;;5054516;28;20514;-63
2022/10/21 09:39:40;;;;;;;0.40;0.40;;;13.90;99.90;;;;;;5054070;28;20609;-62
2022/10/21 09:42:30;;;;;;;0.40;0.40;;;14.00;99.90;;;;;;5063505;28;20968;-63
2022/10/21 09:45:37;;;;;;;0.40;0.40;;;14.00;99.90;;;;;;5064436;28;20201;-63
2022/10/21 09:48:29;;;;;;;0.40;0.40;;;14.10;99.90;;;;;;5063032;28;20247;-63
2022/10/21 09:51:31;;;;;;;0.40;0.40;;;14.20;99.90;;;;;;5064747;28;20454;-63
2022/10/21 09:54:22;;;;;;;0.50;0.50;;;14.30;99.90;;;;;;5068207;28;20464;-62
2022/10/21 09:57:14;;;;;;;0.40;0.40;;;14.40;99.90;;;;;;5063336;28;20433;-63
2022/10/21 10:00:05;;;;;;;0.40;0.40;;;14.50;99.90;;;;;;5070712;28;20717;-63
2022/10/21 10:02:58;;;;;;;0.40;0.40;;;14.50;99.90;;;;;;5066321;28;20464;-63
2022/10/21 10:05:47;;;;;;;0.40;0.40;;;14.60;99.90;;;;;;5066900;28;20511;-63
2022/10/21 10:08:38;;;;;;;0.40;0.40;;;14.70;99.90;;;;;;5057142;28;21073;-63
2022/10/21 10:11:26;;;;;;;0.40;0.40;;;14.80;99.90;;;;;;5046064;28;20979;-63
2022/10/21 10:14:26;;;;;;;0.40;0.40;;;14.90;99.90;;;;;;5052076;28;20464;-63
2022/10/21 10:17:25;;;;;;;0.93;0.93;;;14.80;99.90;;;;;;5052660;28;20566;-63
2022/10/21 10:20:17;;;;;;;1.40;1.33;;;14.90;99.90;;;;;;5053422;28;20300;-63
2022/10/21 10:23:17;;;;;;;0.40;0.40;;;14.90;99.90;;;;;;5046243;28;20472;-63
2022/10/21 10:26:05;;;;;;;0.40;0.40;;;14.90;99.90;;;;;;5038955;28;20233;-63
2022/10/21 10:31:47;;;;;;;0.63;0.63;;;15.00;99.90;;;;;;4976420;28;20278;-64
2022/10/21 10:34:49;;;;;;;0.40;0.40;;;15.10;99.90;;;;;;4977505;28;20201;-64
2022/10/21 10:37:38;;;;;;;0.40;0.40;;;15.10;99.90;;;;;;4977898;28;20204;-66
2022/10/21 10:40:31;;;;;;;1.13;1.13;;;15.20;99.90;;;;;;4991035;28;20238;-64
2022/10/21 10:43:25;;;;;;;0.40;0.40;;;15.40;99.90;;;;;;4977220;28;20302;-64
2022/10/21 10:46:22;;;;;;;0.40;0.40;;;15.40;99.90;;;;;;4977565;28;20289;-65
2022/10/21 10:49:21;;;;;;;3.05;2.92;;;15.40;99.90;;;;;;4977029;28;20255;-70
2022/10/21 10:52:22;;;;;;;0.40;0.40;;;15.50;99.90;;;;;;4978467;28;20229;-64
2022/10/21 10:55:17;;;;;;;0.40;0.40;;;15.60;99.90;;;;;;4977767;28;20254;-68
2022/10/21 10:58:09;;;;;;;0.40;0.40;;;15.70;99.90;;;;;;4977409;28;20212;-65
2022/10/21 11:01:09;;;;;;;0.40;0.40;;;15.50;99.90;;;;;;4977270;28;20727;-69
2022/10/21 11:04:02;;;;;;;0.40;0.40;;;15.70;99.90;;;;;;4976657;28;20263;-68
2022/10/21 11:06:56;;;;;;;0.40;0.40;;;15.70;99.90;;;;;;4983693;28;20747;-65
2022/10/21 11:09:46;;;;;;;0.40;0.40;;;15.60;99.90;;;;;;4994062;28;20728;-65
2022/10/21 11:12:34;;;;;;;0.40;0.40;;;15.60;99.90;;;;;;4976499;28;20255;-65
2022/10/21 11:15:28;;;;;;;0.40;0.40;;;15.60;99.90;;;;;;4977465;28;20291;-65
2022/10/21 11:18:23;;;;;;;0.40;0.40;;;15.50;99.90;;;;;;4976370;28;20219;-66
2022/10/21 11:21:27;;;;;;;0.40;0.40;;;15.50;99.90;;;;;;4978000;28;20199;-65
2022/10/21 11:24:45;;;;;;;0.40;0.40;;;15.50;99.90;;;;;;4977033;28;20255;-64
2022/10/21 11:27:57;;;;;;;0.40;0.40;;;15.60;99.90;;;;;;4978387;28;20284;-65
2022/10/21 11:30:59;;;;;;;0.40;0.40;;;15.70;99.90;;;;;;4976726;28;20362;-65
2022/10/21 11:33:55;;;;;;;0.80;0.80;;;15.70;99.90;;;;;;4976821;28;20239;-64
2022/10/21 11:36:48;;;;;;;0.40;0.40;;;15.70;99.90;;;;;;4975684;28;20286;-64
2022/10/21 11:39:44;;;;;;;0.40;0.40;;;15.80;99.90;;;;;;4975930;28;20299;-66
2022/10/21 11:42:40;;;;;;;0.40;0.40;;;15.80;99.90;;;;;;4975466;28;20331;-67
2022/10/21 11:45:39;;;;;;;0.60;0.60;;;15.90;99.90;;;;;;4975925;28;20211;-65
2022/10/21 11:48:44;;;;;;;0.40;0.40;;;16.10;99.90;;;;;;4980404;28;20684;-65
2022/10/21 11:51:40;;;;;;;0.40;0.40;;;16.20;99.90;;;;;;4993613;28;20345;-65
2022/10/21 11:54:42;;;;;;;0.40;0.40;;;16.30;99.90;;;;;;4985862;28;20226;-65
2022/10/21 11:57:58;;;;;;;0.37;0.37;;;16.30;99.90;;;;;;4995311;28;20204;-66
2022/10/21 12:00:58;;;;;;;0.35;0.35;;;16.40;99.90;;;;;;4994273;28;20306;-64
2022/10/21 12:04:19;;;;;;;0.40;0.40;;;16.40;99.90;;;;;;4994900;28;20318;-65
2022/10/21 12:07:17;;;;;;;0.40;0.40;;;16.40;99.90;;;;;;4993421;28;20214;-65
2022/10/21 12:10:12;;;;;;;0.40;0.40;;;16.40;99.90;;;;;;4994983;28;20222;-65
2022/10/21 12:13:04;;;;;;;0.40;0.40;;;16.30;99.90;;;;;;4994132;28;20254;-65
2022/10/21 12:15:56;;;;;;;0.40;0.40;;;16.30;99.90;;;;;;4994929;28;20250;-65
2022/10/21 12:18:49;;;;;;;0.40;0.40;;;16.40;99.90;;;;;;4995358;28;20277;-68
2022/10/21 12:21:41;;;;;;;0.40;0.40;;;16.30;99.90;;;;;;4994212;28;20203;-65
2022/10/21 12:24:43;;;;;;;0.40;0.40;;;16.30;99.90;;;;;;4994522;28;20278;-65
2022/10/21 12:27:38;;;;;;;0.40;0.40;;;16.30;99.90;;;;;;4993823;28;20234;-67
2022/10/21 12:30:37;;;;;;;0.40;0.40;;;16.30;99.90;;;;;;4994562;28;20231;-65
2022/10/21 12:33:36;;;;;;;0.40;0.40;;;16.30;99.90;;;;;;4994448;28;20668;-64
2022/10/21 12:36:42;;;;;;;0.40;0.40;;;16.20;99.90;;;;;;4994414;28;20702;-67
2022/10/21 12:39:50;;;;;;;0.40;0.40;;;16.20;99.90;;;;;;4994110;28;20300;-65
2022/10/21 12:42:45;;;;;;;0.40;0.40;;;16.20;99.90;;;;;;4994305;28;20307;-65
2022/10/21 12:45:36;;;;;;;0.40;0.40;;;16.20;99.90;;;;;;5002725;28;20204;-65
2022/10/21 12:48:34;;;;;;;0.40;0.40;;;16.00;99.90;;;;;;5012818;28;20249;-67
2022/10/21 12:51:25;;;;;;;0.40;0.40;;;16.00;99.90;;;;;;5004499;28;20727;-65
2022/10/21 12:54:17;;;;;;;0.40;0.40;;;16.00;99.90;;;;;;5002144;28;20199;-64
2022/10/21 12:57:08;;;;;;;0.40;0.40;;;16.10;99.90;;;;;;5006006;28;20237;-65
2022/10/21 13:00:15;;;;;;;0.40;0.40;;;15.80;99.90;;;;;;5006231;28;20286;-65
2022/10/21 13:03:05;;;;;;;0.40;0.40;;;15.90;99.90;;;;;;5006498;28;20223;-66
2022/10/21 13:06:01;;;;;;;0.40;0.40;;;15.90;99.90;;;;;;5005755;28;20204;-67
2022/10/21 13:08:54;;;;;;;0.40;0.40;;;15.80;99.90;;;;;;5003591;28;20204;-65
2022/10/21 13:11:42;;;;;;;0.70;0.70;;;15.80;99.90;;;;;;5003882;28;20203;-65
2022/10/21 13:14:39;;;;;;;0.40;0.40;;;15.80;99.90;;;;;;5004441;28;20218;-66
2022/10/21 13:17:49;;;;;;;0.40;0.40;;;15.80;99.90;;;;;;4997073;28;20694;-65
2022/10/21 13:20:48;;;;;;;0.40;0.40;;;15.70;99.90;;;;;;4997172;28;20308;-68
2022/10/21 13:23:43;;;;;;;0.40;0.40;;;15.70;99.90;;;;;;4997613;28;20212;-65
2022/10/21 13:26:32;;;;;;;0.40;0.40;;;15.60;99.90;;;;;;4996926;28;20283;-65
2022/10/21 13:29:39;;;;;;;0.40;0.40;;;15.60;99.90;;;;;;4995929;28;20671;-65
2022/10/21 13:32:30;;;;;;;0.40;0.40;;;15.60;99.90;;;;;;4995841;28;20231;-68
2022/10/21 13:35:29;;;;;;;0.40;0.40;;;15.60;99.90;;;;;;4997637;28;20226;-65
2022/10/21 13:38:21;;;;;;;0.40;0.40;;;15.70;99.90;;;;;;4996891;28;20199;-67
2022/10/21 13:41:21;;;;;;;0.40;0.40;;;15.70;99.90;;;;;;4996670;28;20297;-65
2022/10/21 13:44:27;;;;;;;0.40;0.40;;;15.80;99.90;;;;;;4996916;28;20219;-67
2022/10/21 13:47:19;;;;;;;0.40;0.40;;;15.80;99.90;;;;;;4996819;28;20285;-66
2022/10/21 13:50:16;;;;;;;0.40;0.40;;;15.70;99.90;;;;;;4996466;28;20309;-64
2022/10/21 13:53:23;;;;;;;0.40;0.40;;;15.70;99.90;;;;;;4995935;28;20254;-65
2022/10/21 13:56:20;;;;;;;0.40;0.40;;;15.70;99.90;;;;;;4995431;28;20338;-65
2022/10/21 13:59:22;;;;;;;0.40;0.40;;;15.70;99.90;;;;;;4977377;28;20346;-65
2022/10/21 14:02:23;;;;;;;0.40;0.40;;;15.60;99.90;;;;;;4976244;28;20626;-66
2022/10/21 14:05:30;;;;;;;0.40;0.40;;;15.60;99.90;;;;;;4976619;28;20324;-64
2022/10/21 14:08:24;;;;;;;0.40;0.40;;;15.50;99.90;;;;;;4977242;28;20798;-65
2022/10/21 14:11:17;;;;;;;0.40;0.40;;;15.50;99.90;;;;;;4976331;28;20334;-65
2022/10/21 14:14:10;;;;;;;0.70;0.70;;;15.50;99.90;;;;;;4976647;28;20204;-65
2022/10/21 14:17:01;;;;;;;0.40;0.40;;;15.50;99.90;;;;;;4976367;28;20284;-64
2022/10/21 14:19:52;;;;;;;0.40;0.40;;;15.50;99.90;;;;;;4976197;28;20274;-65
2022/10/21 14:22:41;;;;;;;0.40;0.40;;;15.40;99.90;;;;;;4977289;28;20626;-64
2022/10/21 14:25:30;;;;;;;0.40;0.40;;;15.50;99.90;;;;;;4979273;28;20206;-65
2022/10/21 14:28:19;;;;;;;0.40;0.40;;;15.50;99.90;;;;;;4977929;28;20200;-64
2022/10/21 14:31:11;;;;;;;0.47;0.47;;;15.40;99.90;;;;;;4975491;28;20343;-65
2022/10/21 14:33:59;;;;;;;0.40;0.40;;;15.20;99.90;;;;;;4976275;28;20259;-67
2022/10/21 14:37:01;;;;;;;0.40;0.40;;;15.40;99.90;;;;;;4975964;28;20298;-67
2022/10/21 14:39:49;;;;;;;0.40;0.40;;;15.40;99.90;;;;;;4976253;28;20234;-64
2022/10/21 14:42:40;;;;;;;0.40;0.40;;;15.40;99.90;;;;;;4976895;28;20200;-64
2022/10/21 14:45:31;;;;;;;0.40;0.40;;;15.40;99.90;;;;;;4976141;28;20215;-64
2022/10/21 14:48:26;;;;;;;0.40;0.40;;;15.40;99.90;;;;;;4976061;28;20199;-64
2022/10/21 14:51:17;;;;;;;0.40;0.40;;;15.30;99.90;;;;;;4975998;28;20443;-64
2022/10/21 14:54:24;;;;;;;0.40;0.40;;;15.40;99.90;;;;;;4976346;28;20196;-64
2022/10/21 14:57:34;;;;;;;0.40;0.40;;;15.30;99.90;;;;;;4984098;28;20221;-64
2022/10/21 15:00:25;;;;;;;0.40;0.40;;;15.30;99.90;;;;;;4993293;28;20310;-67
2022/10/21 15:03:38;;;;;;;0.40;0.40;;;15.30;99.90;;;;;;4993301;28;20686;-63